aviador You're here:

ETIK Decoded Metar

ILLESHEIM in GERMANY
Report Time2018-01-19 04:56:00
UTC Time2018-01-19 05:19:33
Flight Rules mvfr MVFR
Wind250° at 13 kt
W.Rank250° ranks 1
Current wind is above 250° avg. (8.8)
Visibility9999 m
Phenomena:N/A
Clouds:Overcast 024 Hf
Ceiling2,400 ft
Temp03°C (ISA -10)
Dew Point03°C (100% RH)
AAT-3.2°C
QNH1005 hPa
Density Alt249 ft
Elevation1,066 ft
Report Wrong Elevation
Raw Report
METAR ETIK 190456Z AUTO 25013KT 9999 OVC024 03/03 A2968 RMK AO2 SLP064
T00270027=

Extra information for ETIK:More info

Metar Taf Metar & Taf Last 4 Metars F.Rules Stats Wind Profile Meteogram Temp Stats Airport Information Weather charts Add Link Nearby VenuesMetar ALERT Operation Metar Decoded Social comments